Time;durP1;ratioP1;P1;durP2;ratioP2;P2;SDS_P1;SDS_P2;PMS_P1;PMS_P2;Temp;Humidity;BMP_temperature;BMP_pressure;BME280_temperature;BME280_humidity;BME280_pressure;Samples;Min_cycle;Max_cycle;Signal;HPM_P1;HPM_P2
2021/09/01 00:01:48;;;;;;;59.78;23.60;;;12.20;99.90;;;;;;5031716;28;20032;-87
2021/09/01 00:04:14;;;;;;;44.08;22.70;;;12.20;99.90;;;;;;5033120;28;20029;-86
2021/09/01 00:06:39;;;;;;;68.30;23.55;;;12.20;99.90;;;;;;5034685;28;20143;-85
2021/09/01 00:09:05;;;;;;;55.78;23.13;;;12.10;99.90;;;;;;5035953;28;20565;-86
2021/09/01 00:11:31;;;;;;;47.38;23.65;;;12.10;99.90;;;;;;5035352;28;20486;-86
2021/09/01 00:13:56;;;;;;;76.88;25.10;;;12.20;99.90;;;;;;5035414;28;20025;-86
2021/09/01 00:16:29;;;;;;;54.53;24.98;;;12.20;99.90;;;;;;5034439;28;20055;-86
2021/09/01 00:19:00;;;;;;;75.20;28.75;;;12.20;99.90;;;;;;5034560;28;20048;-87
2021/09/01 00:21:26;;;;;;;63.72;28.10;;;12.30;99.90;;;;;;5035444;28;20021;-87
2021/09/01 00:23:52;;;;;;;55.30;27.17;;;12.30;99.90;;;;;;5034266;28;20048;-87
2021/09/01 00:26:18;;;;;;;65.35;25.45;;;12.30;99.90;;;;;;5035310;28;20029;-87
2021/09/01 00:28:44;;;;;;;58.60;26.00;;;12.20;99.90;;;;;;5035509;28;20032;-86
2021/09/01 00:31:10;;;;;;;48.17;24.65;;;12.30;99.90;;;;;;5034008;28;20456;-86
2021/09/01 00:33:36;;;;;;;75.78;25.05;;;12.20;99.90;;;;;;5034112;28;20033;-86
2021/09/01 00:36:02;;;;;;;47.53;22.42;;;12.10;99.90;;;;;;5033913;28;20026;-86
2021/09/01 00:38:27;;;;;;;34.67;21.20;;;12.10;99.90;;;;;;5035288;28;20100;-86
2021/09/01 00:40:54;;;;;;;36.45;19.65;;;12.00;99.90;;;;;;5034854;28;20029;-87
2021/09/01 00:43:25;;;;;;;29.52;18.20;;;11.90;99.90;;;;;;5034019;28;20030;-86
2021/09/01 00:45:50;;;;;;;27.50;17.52;;;11.90;99.90;;;;;;5034835;28;20371;-86
2021/09/01 00:48:24;;;;;;;30.50;16.20;;;11.90;99.90;;;;;;5035103;28;20036;-86
2021/09/01 00:50:53;;;;;;;37.13;21.67;;;11.90;99.90;;;;;;5033631;28;20029;-86
2021/09/01 00:53:19;;;;;;;187.50;24.25;;;11.80;99.90;;;;;;5035045;28;20088;-86
2021/09/01 00:55:46;;;;;;;37.58;21.27;;;11.90;99.90;;;;;;5034860;28;20021;-86
2021/09/01 00:58:19;;;;;;;182.23;26.77;;;12.00;99.90;;;;;;5033640;28;20505;-87
2021/09/01 01:03:30;;;;;;;167.40;26.25;;;12.10;99.90;;;;;;5015241;28;20529;-86
2021/09/01 01:05:57;;;;;;;63.60;26.25;;;12.10;99.90;;;;;;5029865;28;20058;-86
2021/09/01 01:08:27;;;;;;;48.28;26.33;;;12.20;99.90;;;;;;5030283;28;20026;-87
2021/09/01 01:10:53;;;;;;;55.58;28.10;;;12.20;99.90;;;;;;5030443;28;20443;-87
2021/09/01 01:13:19;;;;;;;75.10;28.30;;;12.40;99.90;;;;;;5030507;28;20036;-86
2021/09/01 01:15:44;;;;;;;58.70;28.83;;;12.30;99.90;;;;;;5033027;28;20109;-88
2021/09/01 01:18:10;;;;;;;72.63;30.13;;;12.40;99.90;;;;;;5033704;28;20017;-87
2021/09/01 01:20:37;;;;;;;62.17;28.73;;;12.50;99.90;;;;;;5033396;28;20033;-86
2021/09/01 01:23:03;;;;;;;74.38;32.35;;;12.60;99.90;;;;;;5032992;28;20037;-87
2021/09/01 01:25:32;;;;;;;64.40;28.70;;;12.70;99.90;;;;;;5034146;28;20195;-86
2021/09/01 01:27:58;;;;;;;92.35;33.40;;;12.80;99.90;;;;;;5034302;28;20030;-86
2021/09/01 01:30:23;;;;;;;82.95;30.52;;;12.90;99.90;;;;;;5032965;28;20021;-85
2021/09/01 01:32:51;;;;;;;91.55;33.30;;;12.90;99.90;;;;;;5032658;28;20059;-85
2021/09/01 01:35:44;;;;;;;73.93;30.38;;;13.00;99.90;;;;;;5033592;28;20030;-85
2021/09/01 01:38:17;;;;;;;69.90;28.23;;;13.10;99.90;;;;;;5032576;28;20045;-86
2021/09/01 01:40:44;;;;;;;69.57;29.92;;;13.00;99.90;;;;;;5032870;28;20021;-86
2021/09/01 01:43:10;;;;;;;69.65;28.90;;;13.00;99.90;;;;;;5032589;28;20030;-85
2021/09/01 01:45:44;;;;;;;65.60;26.10;;;12.90;99.90;;;;;;5032480;28;20029;-86
2021/09/01 01:48:13;;;;;;;70.43;28.98;;;12.80;99.90;;;;;;5032713;28;20060;-85
2021/09/01 01:50:41;;;;;;;65.68;24.65;;;12.70;99.90;;;;;;5033935;28;20144;-85
2021/09/01 01:53:07;;;;;;;66.65;25.45;;;12.70;99.90;;;;;;5033462;28;20116;-86
2021/09/01 01:55:34;;;;;;;65.32;27.80;;;12.70;99.90;;;;;;5033675;28;20025;-86
2021/09/01 01:57:59;;;;;;;86.35;28.92;;;12.70;99.90;;;;;;5032571;28;20036;-86
2021/09/01 02:00:25;;;;;;;55.33;26.00;;;12.70;99.90;;;;;;5032489;28;20018;-86
2021/09/01 02:02:50;;;;;;;68.95;27.98;;;12.60;99.90;;;;;;5033691;28;20433;-86
2021/09/01 02:05:16;;;;;;;51.60;24.15;;;12.50;99.90;;;;;;5033092;28;20064;-86
2021/09/01 02:07:42;;;;;;;56.38;23.42;;;12.50;99.90;;;;;;5033538;28;20021;-86
2021/09/01 02:10:09;;;;;;;132.82;23.67;;;12.50;99.90;;;;;;5032374;28;20048;-86
2021/09/01 02:12:39;;;;;;;87.20;22.42;;;12.40;99.90;;;;;;5032280;28;20026;-86
2021/09/01 02:15:07;;;;;;;34.85;20.20;;;12.40;99.90;;;;;;5032980;28;20033;-87
2021/09/01 02:17:32;;;;;;;35.75;21.75;;;12.40;99.90;;;;;;5032013;28;20486;-88
2021/09/01 02:19:58;;;;;;;94.75;23.35;;;12.30;99.90;;;;;;5033596;28;20044;-87
2021/09/01 02:22:24;;;;;;;113.95;24.10;;;12.50;99.90;;;;;;5032132;28;20032;-87
2021/09/01 02:24:50;;;;;;;68.35;25.67;;;12.50;99.90;;;;;;5031627;28;20028;-86
2021/09/01 02:27:16;;;;;;;41.22;24.63;;;12.60;99.90;;;;;;5031706;28;20496;-86
2021/09/01 02:29:42;;;;;;;38.70;21.83;;;12.50;99.90;;;;;;5032053;28;20048;-86
2021/09/01 02:32:08;;;;;;;44.88;24.25;;;12.50;99.90;;;;;;5033232;28;20026;-86
2021/09/01 02:34:33;;;;;;;56.20;25.75;;;12.60;99.90;;;;;;5031316;28;20441;-86
2021/09/01 02:36:59;;;;;;;54.17;25.10;;;12.50;99.90;;;;;;5031676;28;20017;-86
2021/09/01 02:39:25;;;;;;;55.15;26.35;;;12.60;99.90;;;;;;5032018;28;20087;-86
2021/09/01 02:41:51;;;;;;;49.80;22.27;;;12.60;99.90;;;;;;5031847;28;20022;-86
2021/09/01 02:44:16;;;;;;;57.50;27.27;;;12.70;99.90;;;;;;5032702;28;20029;-86
2021/09/01 02:46:42;;;;;;;52.95;26.00;;;12.70;99.90;;;;;;5032645;28;20034;-86
2021/09/01 02:49:08;;;;;;;77.97;29.08;;;12.70;99.90;;;;;;5031537;28;20121;-86
2021/09/01 02:51:34;;;;;;;60.90;25.70;;;12.80;99.90;;;;;;5031538;28;20029;-86
2021/09/01 02:53:59;;;;;;;60.30;28.38;;;12.80;99.90;;;;;;5031267;28;20151;-86
2021/09/01 02:56:25;;;;;;;58.45;26.88;;;12.80;99.90;;;;;;5031125;28;20087;-86
2021/09/01 02:58:51;;;;;;;54.15;28.08;;;12.70;99.90;;;;;;5032616;28;20037;-86
2021/09/01 03:01:16;;;;;;;52.80;24.83;;;12.80;99.90;;;;;;5031341;28;20031;-87
2021/09/01 03:03:42;;;;;;;63.70;29.27;;;12.80;99.90;;;;;;5031211;28;20608;-86
2021/09/01 03:06:07;;;;;;;64.93;29.33;;;12.80;99.90;;;;;;5032135;28;20063;-86
2021/09/01 03:08:33;;;;;;;57.63;27.98;;;12.80;99.90;;;;;;5031253;28;20022;-86
2021/09/01 03:10:58;;;;;;;71.15;32.25;;;12.90;99.90;;;;;;5031313;28;20028;-86
2021/09/01 03:13:24;;;;;;;66.38;29.77;;;12.90;99.90;;;;;;5032036;28;20029;-87
2021/09/01 03:15:50;;;;;;;95.80;30.83;;;12.90;99.90;;;;;;5030709;28;20031;-87
2021/09/01 03:18:15;;;;;;;75.00;28.13;;;12.90;99.90;;;;;;5031421;28;20371;-87
2021/09/01 03:20:41;;;;;;;48.45;26.98;;;12.80;99.90;;;;;;5032622;28;20485;-86
2021/09/01 03:23:06;;;;;;;63.10;27.63;;;12.90;99.90;;;;;;5030520;28;20122;-86
2021/09/01 03:25:32;;;;;;;54.67;28.70;;;12.90;99.90;;;;;;5031989;28;20111;-87
2021/09/01 03:27:59;;;;;;;66.18;27.45;;;12.80;99.90;;;;;;5032086;28;20026;-88
2021/09/01 03:30:29;;;;;;;59.38;26.80;;;12.80;99.90;;;;;;5032166;28;20370;-86
2021/09/01 03:32:55;;;;;;;45.67;26.00;;;12.80;99.90;;;;;;5030767;28;20029;-85
2021/09/01 03:35:21;;;;;;;141.15;30.52;;;12.90;99.90;;;;;;5030554;28;20497;-86
2021/09/01 03:37:47;;;;;;;115.93;30.83;;;12.90;99.90;;;;;;5031385;28;20036;-85
2021/09/01 03:40:13;;;;;;;77.20;29.20;;;12.90;99.90;;;;;;5032062;28;20385;-85
2021/09/01 03:42:40;;;;;;;104.22;29.23;;;13.00;99.90;;;;;;5030507;28;20025;-88
2021/09/01 03:45:06;;;;;;;71.72;28.10;;;13.00;99.90;;;;;;5030372;28;20121;-87
2021/09/01 03:47:32;;;;;;;48.10;27.13;;;13.10;99.90;;;;;;5030791;28;20374;-86
2021/09/01 03:49:58;;;;;;;86.30;28.63;;;13.00;99.90;;;;;;5030627;28;20026;-86
2021/09/01 03:52:24;;;;;;;89.28;28.05;;;13.10;99.90;;;;;;5030569;28;20032;-85
2021/09/01 03:54:49;;;;;;;57.83;29.95;;;13.10;99.90;;;;;;5031491;28;20493;-85
2021/09/01 03:57:15;;;;;;;65.18;29.50;;;13.20;99.90;;;;;;5030652;28;20386;-85
2021/09/01 03:59:41;;;;;;;84.50;30.38;;;13.30;99.90;;;;;;5030497;28;20021;-86
2021/09/01 04:02:07;;;;;;;83.63;30.63;;;13.30;99.90;;;;;;5030568;28;20022;-86
2021/09/01 04:04:34;;;;;;;72.20;31.35;;;13.40;99.90;;;;;;5029989;28;20033;-86
2021/09/01 04:07:00;;;;;;;69.90;31.67;;;13.40;99.90;;;;;;5030563;28;20505;-86
2021/09/01 04:09:25;;;;;;;66.13;29.15;;;13.40;99.90;;;;;;5031827;28;20117;-86
2021/09/01 04:11:51;;;;;;;66.15;30.65;;;13.40;99.90;;;;;;5032107;28;20056;-87
2021/09/01 04:14:16;;;;;;;66.60;31.83;;;13.40;99.90;;;;;;5029525;28;20025;-87
2021/09/01 04:16:42;;;;;;;61.85;31.17;;;13.60;99.90;;;;;;5031776;28;20026;-87
2021/09/01 04:19:07;;;;;;;69.57;33.20;;;13.60;99.90;;;;;;5031539;28;20025;-85
2021/09/01 04:21:33;;;;;;;91.30;29.80;;;13.60;99.90;;;;;;5031694;28;20025;-86
2021/09/01 04:23:58;;;;;;;137.05;31.05;;;13.70;99.90;;;;;;5029842;28;20029;-88
2021/09/01 04:26:24;;;;;;;77.72;28.63;;;13.80;99.90;;;;;;5030164;28;20037;-86
2021/09/01 04:28:49;;;;;;;164.18;28.15;;;13.80;99.90;;;;;;5030242;28;20022;-87
2021/09/01 04:31:15;;;;;;;94.03;24.85;;;13.80;99.90;;;;;;5030520;28;20032;-87
2021/09/01 04:33:41;;;;;;;70.80;28.00;;;13.80;99.90;;;;;;5030040;28;20029;-86
2021/09/01 04:36:06;;;;;;;80.85;26.70;;;13.90;99.90;;;;;;5030245;28;20147;-86
2021/09/01 04:38:32;;;;;;;70.18;25.95;;;13.80;99.90;;;;;;5031600;28;20053;-87
2021/09/01 04:40:57;;;;;;;71.47;24.85;;;13.80;99.90;;;;;;5031656;28;20125;-87
2021/09/01 04:43:23;;;;;;;64.13;26.38;;;13.90;99.90;;;;;;5030455;28;20067;-87
2021/09/01 04:45:48;;;;;;;45.00;24.70;;;13.70;99.90;;;;;;5029675;28;20045;-87
2021/09/01 04:48:14;;;;;;;51.60;26.92;;;13.90;99.90;;;;;;5030294;28;20021;-86
2021/09/01 04:50:39;;;;;;;62.80;26.63;;;13.90;99.90;;;;;;5034808;28;20092;-88
2021/09/01 04:53:05;;;;;;;71.18;34.45;;;13.90;99.90;;;;;;5033981;28;20026;-87
2021/09/01 04:55:31;;;;;;;60.05;26.92;;;13.80;99.90;;;;;;5033355;28;20033;-87
2021/09/01 04:57:56;;;;;;;63.75;28.88;;;13.80;99.90;;;;;;5033580;28;20079;-87
2021/09/01 05:00:22;;;;;;;72.35;28.33;;;13.80;99.90;;;;;;5033700;28;20032;-86
2021/09/01 05:02:47;;;;;;;57.55;31.17;;;13.80;99.90;;;;;;5033672;28;20022;-87
2021/09/01 05:05:13;;;;;;;57.08;28.13;;;13.80;99.90;;;;;;5033021;28;20109;-87
2021/09/01 05:07:38;;;;;;;47.40;25.85;;;13.80;99.90;;;;;;5033616;28;20448;-87
2021/09/01 05:10:04;;;;;;;59.13;25.95;;;13.80;99.90;;;;;;5034274;28;20067;-86
2021/09/01 05:12:30;;;;;;;69.80;26.63;;;13.80;99.90;;;;;;5033529;28;20104;-87
2021/09/01 05:14:57;;;;;;;45.03;24.25;;;13.90;99.90;;;;;;5034504;28;20029;-86
2021/09/01 05:17:23;;;;;;;46.03;25.33;;;13.90;99.90;;;;;;5033348;28;20028;-86
2021/09/01 05:19:49;;;;;;;63.78;24.13;;;13.90;99.90;;;;;;5033091;28;20489;-86
2021/09/01 05:22:21;;;;;;;49.53;25.63;;;14.00;99.90;;;;;;5033413;28;20029;-86
2021/09/01 05:25:06;;;;;;;60.40;27.23;;;14.00;99.90;;;;;;5034209;28;20124;-86
2021/09/01 05:27:34;;;;;;;74.80;27.77;;;14.00;99.90;;;;;;5033535;28;20547;-86
2021/09/01 05:30:01;;;;;;;52.45;26.15;;;14.10;99.90;;;;;;5034276;28;20509;-86
2021/09/01 05:32:29;;;;;;;49.13;26.38;;;14.00;99.90;;;;;;5034457;28;20030;-87
2021/09/01 05:35:00;;;;;;;72.60;27.42;;;14.20;99.90;;;;;;5033921;28;20056;-86
2021/09/01 05:37:27;;;;;;;60.85;27.98;;;14.00;99.90;;;;;;5034350;28;20014;-86
2021/09/01 05:39:57;;;;;;;41.05;25.17;;;14.10;99.90;;;;;;5032635;28;20144;-87
2021/09/01 05:42:24;;;;;;;48.60;24.33;;;14.10;99.90;;;;;;5034157;28;20071;-87
2021/09/01 05:44:51;;;;;;;42.47;23.73;;;14.20;99.90;;;;;;5033807;28;20505;-87
2021/09/01 05:47:18;;;;;;;40.95;22.38;;;14.30;99.90;;;;;;5033291;28;20040;-86
2021/09/01 05:49:46;;;;;;;56.42;24.98;;;14.20;99.90;;;;;;5033980;28;20493;-87
2021/09/01 05:52:13;;;;;;;47.92;27.08;;;14.20;99.90;;;;;;5032789;28;20033;-87
2021/09/01 05:54:40;;;;;;;47.08;25.40;;;14.30;99.90;;;;;;5032406;28;20036;-87
2021/09/01 05:57:15;;;;;;;42.45;22.90;;;14.30;99.90;;;;;;5032873;28;20032;-87
2021/09/01 05:59:54;;;;;;;55.10;23.02;;;14.30;99.90;;;;;;5032887;28;20028;-89
2021/09/01 06:02:22;;;;;;;62.88;23.35;;;14.30;99.90;;;;;;5026793;28;20149;-87
2021/09/01 06:04:48;;;;;;;62.33;24.58;;;14.30;99.90;;;;;;5028722;28;20022;-87
2021/09/01 06:07:17;;;;;;;37.08;21.90;;;14.20;99.90;;;;;;5014076;28;20030;-87
2021/09/01 06:09:44;;;;;;;67.97;22.17;;;14.10;99.90;;;;;;5029272;28;20116;-87
2021/09/01 06:12:25;;;;;;;56.97;23.08;;;14.10;99.90;;;;;;5032548;28;20503;-90
2021/09/01 06:14:50;;;;;;;63.42;22.50;;;14.10;99.90;;;;;;5032113;28;20490;-87
2021/09/01 06:17:16;;;;;;;32.45;20.48;;;14.00;99.90;;;;;;5033761;28;20040;-87
2021/09/01 06:19:41;;;;;;;38.15;20.15;;;14.00;99.90;;;;;;5033740;28;20018;-89
2021/09/01 06:22:07;;;;;;;56.70;22.05;;;14.00;99.90;;;;;;5031950;28;20059;-88
2021/09/01 06:24:33;;;;;;;161.25;22.55;;;14.00;99.90;;;;;;5032991;28;20029;-87
2021/09/01 06:27:01;;;;;;;88.85;21.52;;;14.10;99.90;;;;;;5033598;28;20025;-89
2021/09/01 06:29:27;;;;;;;48.70;18.13;;;14.00;99.90;;;;;;5032419;28;20061;-88
2021/09/01 06:31:53;;;;;;;36.90;18.23;;;14.00;99.90;;;;;;5031935;28;20494;-88
2021/09/01 06:34:19;;;;;;;74.50;18.83;;;14.10;99.90;;;;;;5031703;28;20036;-86
2021/09/01 06:36:44;;;;;;;39.30;18.85;;;14.10;99.90;;;;;;5033390;28;20393;-88
2021/09/01 06:39:11;;;;;;;27.65;17.20;;;14.10;99.90;;;;;;5031958;28;20029;-87
2021/09/01 06:41:36;;;;;;;34.35;18.60;;;14.20;99.90;;;;;;5031734;28;20056;-88
2021/09/01 06:44:03;;;;;;;28.77;19.13;;;14.20;99.90;;;;;;5031569;28;20394;-86
2021/09/01 06:46:28;;;;;;;33.17;17.45;;;14.20;99.90;;;;;;5031994;28;20026;-88
2021/09/01 06:48:54;;;;;;;31.58;19.35;;;14.30;99.90;;;;;;5032133;28;20386;-86
2021/09/01 06:51:19;;;;;;;40.20;18.15;;;14.30;99.90;;;;;;5032831;28;20018;-87
2021/09/01 06:53:45;;;;;;;52.42;19.90;;;14.40;99.90;;;;;;5031295;28;20034;-87
2021/09/01 06:56:10;;;;;;;30.10;18.55;;;14.20;99.90;;;;;;5031452;28;20044;-86
2021/09/01 06:58:36;;;;;;;29.65;18.10;;;14.20;99.90;;;;;;5032796;28;20108;-87
2021/09/01 07:01:02;;;;;;;29.77;20.40;;;14.30;99.90;;;;;;5031719;28;20022;-88
2021/09/01 07:03:28;;;;;;;34.13;19.95;;;14.50;99.90;;;;;;5032917;28;20087;-89
2021/09/01 07:05:54;;;;;;;28.08;19.23;;;14.50;99.90;;;;;;5031234;28;20372;-87
2021/09/01 07:08:22;;;;;;;29.60;17.08;;;14.70;99.90;;;;;;5032653;28;20025;-86
2021/09/01 07:10:48;;;;;;;42.38;19.75;;;14.70;99.90;;;;;;5033087;28;20030;-88
2021/09/01 07:13:14;;;;;;;25.17;17.40;;;14.80;99.90;;;;;;5032337;28;20025;-86
2021/09/01 07:15:40;;;;;;;28.20;17.75;;;14.80;99.90;;;;;;5030970;28;20029;-87
2021/09/01 07:18:06;;;;;;;25.83;18.38;;;14.80;99.90;;;;;;5031273;28;20104;-87
2021/09/01 07:20:31;;;;;;;26.40;17.52;;;14.70;99.90;;;;;;5031058;28;20120;-86
2021/09/01 07:22:57;;;;;;;38.75;19.05;;;14.80;99.90;;;;;;5030824;28;20033;-86
2021/09/01 07:25:23;;;;;;;30.95;18.40;;;14.90;99.90;;;;;;5030569;28;20443;-87
2021/09/01 07:27:49;;;;;;;23.17;16.55;;;15.00;99.90;;;;;;5031187;28;20037;-87
2021/09/01 07:30:15;;;;;;;30.95;18.92;;;15.10;99.90;;;;;;5032084;28;20067;-86
2021/09/01 07:32:41;;;;;;;20.88;15.40;;;14.90;99.90;;;;;;5030818;28;20108;-87
2021/09/01 07:35:06;;;;;;;25.20;17.05;;;15.10;99.90;;;;;;5030491;28;20183;-87
2021/09/01 07:37:32;;;;;;;30.05;17.52;;;15.20;99.90;;;;;;5031088;28;20029;-87
2021/09/01 07:39:58;;;;;;;24.70;17.88;;;15.10;99.90;;;;;;5032056;28;20022;-87
2021/09/01 07:42:23;;;;;;;23.30;17.17;;;15.20;99.90;;;;;;5030679;28;20013;-87
2021/09/01 07:44:49;;;;;;;27.35;15.80;;;15.40;99.90;;;;;;5030064;28;20383;-88
2021/09/01 07:47:14;;;;;;;23.33;16.23;;;15.50;99.90;;;;;;5030655;28;20024;-88
2021/09/01 07:49:41;;;;;;;22.60;16.02;;;15.80;99.90;;;;;;5030828;28;20025;-88
2021/09/01 07:52:07;;;;;;;24.10;16.15;;;16.10;99.90;;;;;;5031985;28;20055;-87
2021/09/01 07:54:33;;;;;;;21.25;14.23;;;16.20;99.90;;;;;;5031321;28;20104;-87
2021/09/01 07:56:59;;;;;;;24.40;16.75;;;16.30;99.90;;;;;;5032158;28;20076;-89
2021/09/01 07:59:24;;;;;;;25.17;14.68;;;16.30;99.90;;;;;;5030840;28;20022;-88
2021/09/01 08:01:50;;;;;;;26.50;13.52;;;16.20;99.90;;;;;;5032786;28;20477;-90
2021/09/01 08:04:16;;;;;;;23.73;15.32;;;16.40;99.90;;;;;;5031373;28;20022;-89
2021/09/01 08:06:41;;;;;;;24.55;13.32;;;16.60;99.90;;;;;;5031473;28;20033;-89
2021/09/01 08:09:07;;;;;;;21.20;13.82;;;16.70;99.90;;;;;;5032549;28;20065;-92
2021/09/01 08:11:32;;;;;;;23.90;13.90;;;16.80;99.90;;;;;;5031277;28;20026;-89
2021/09/01 08:13:58;;;;;;;22.10;13.35;;;17.00;99.90;;;;;;5031447;28;20033;-88
2021/09/01 08:16:24;;;;;;;22.38;13.77;;;17.10;99.90;;;;;;5031929;28;20025;-91
2021/09/01 08:18:49;;;;;;;21.55;12.98;;;17.00;99.90;;;;;;5031415;28;20413;-90
2021/09/01 08:21:15;;;;;;;24.13;13.13;;;17.10;99.90;;;;;;5030746;28;20025;-88
2021/09/01 08:23:40;;;;;;;26.30;12.07;;;17.20;99.90;;;;;;5030898;28;20143;-88
2021/09/01 08:26:06;;;;;;;22.33;13.32;;;17.60;99.90;;;;;;5035938;28;20033;-92
2021/09/01 08:28:32;;;;;;;25.90;12.15;;;17.70;99.90;;;;;;5036166;28;20025;-88
2021/09/01 08:30:57;;;;;;;21.60;12.52;;;17.60;99.90;;;;;;5034624;28;20040;-89
2021/09/01 08:33:23;;;;;;;21.23;12.55;;;17.70;99.90;;;;;;5034131;28;20030;-88
2021/09/01 08:35:49;;;;;;;22.75;13.18;;;17.70;99.90;;;;;;5018054;28;20021;-87
2021/09/01 08:38:15;;;;;;;24.02;12.18;;;18.10;99.90;;;;;;5031176;28;20516;-86
2021/09/01 08:40:41;;;;;;;24.10;12.27;;;18.60;99.90;;;;;;5029306;28;20021;-88
2021/09/01 08:43:07;;;;;;;23.63;12.50;;;18.90;99.90;;;;;;5030449;28;20028;-86
2021/09/01 08:45:33;;;;;;;24.88;12.75;;;18.70;99.90;;;;;;5030797;28;20025;-88
2021/09/01 08:48:00;;;;;;;27.60;12.32;;;18.40;99.90;;;;;;5030118;28;20473;-89
2021/09/01 08:50:28;;;;;;;16.33;11.38;;;18.30;99.90;;;;;;5030183;28;20056;-84
2021/09/01 08:52:54;;;;;;;19.77;11.00;;;18.30;99.90;;;;;;5029336;28;20486;-81
2021/09/01 08:55:20;;;;;;;18.65;11.23;;;18.70;99.90;;;;;;5031957;28;20059;-91
2021/09/01 08:57:45;;;;;;;22.13;10.25;;;18.70;99.90;;;;;;5029434;28;20437;-90
2021/09/01 09:00:12;;;;;;;24.67;11.10;;;19.00;99.90;;;;;;5032815;28;20021;-89
2021/09/01 09:02:38;;;;;;;19.30;9.85;;;19.20;99.90;;;;;;5024644;28;20025;-84
2021/09/01 09:05:08;;;;;;;23.88;11.32;;;19.50;99.90;;;;;;5029290;28;20030;-84
2021/09/01 09:07:54;;;;;;;14.57;9.00;;;19.40;99.90;;;;;;5030560;28;20037;-85
2021/09/01 09:10:37;;;;;;;17.13;9.85;;;19.60;99.90;;;;;;5029095;28;20545;-85
2021/09/01 09:13:12;;;;;;;21.48;11.25;;;19.50;99.90;;;;;;5029971;28;20133;-90
2021/09/01 09:15:39;;;;;;;16.00;9.95;;;19.50;99.90;;;;;;5034485;28;20033;-94
2021/09/01 09:18:24;;;;;;;16.33;9.68;;;19.40;99.90;;;;;;5033213;28;20021;-90
2021/09/01 09:21:06;;;;;;;15.48;9.85;;;19.50;99.90;;;;;;5026242;28;20025;-89
2021/09/01 09:23:32;;;;;;;16.95;9.68;;;19.70;99.90;;;;;;5033546;28;20458;-90
2021/09/01 09:25:57;;;;;;;14.40;9.48;;;19.90;99.90;;;;;;5033156;28;20051;-92
2021/09/01 09:28:23;;;;;;;14.68;9.43;;;20.30;99.90;;;;;;5022357;28;20107;-91
2021/09/01 09:30:49;;;;;;;24.02;8.68;;;20.50;99.90;;;;;;5015584;28;20068;-90
2021/09/01 09:33:16;;;;;;;16.38;10.10;;;20.50;99.90;;;;;;5033089;28;20083;-93
2021/09/01 09:36:02;;;;;;;13.95;9.55;;;20.60;99.90;;;;;;5034151;28;20505;-91
2021/09/01 09:38:34;;;;;;;15.75;9.68;;;20.80;99.90;;;;;;5035559;28;20113;-91
2021/09/01 09:41:02;;;;;;;15.00;9.10;;;20.80;99.90;;;;;;5035235;28;20024;-93
2021/09/01 09:43:29;;;;;;;15.27;9.27;;;20.90;99.90;;;;;;5035692;28;20032;-93
2021/09/01 09:46:06;;;;;;;17.65;10.88;;;20.80;99.90;;;;;;5036471;28;20068;-91
2021/09/01 09:48:32;;;;;;;16.42;9.98;;;21.10;99.90;;;;;;5035652;28;20068;-90
2021/09/01 09:51:01;;;;;;;20.75;9.10;;;21.00;99.90;;;;;;5034544;28;20084;-89
2021/09/01 09:53:39;;;;;;;17.05;9.30;;;21.40;99.90;;;;;;5035772;28;20026;-91
2021/09/01 09:56:20;;;;;;;15.48;9.50;;;21.40;99.90;;;;;;5035713;28;20025;-92
2021/09/01 09:58:49;;;;;;;21.55;9.20;;;21.50;99.90;;;;;;5036651;28;20021;-92
2021/09/01 10:01:17;;;;;;;17.90;8.35;;;21.50;99.90;;;;;;5035712;28;20022;-93
2021/09/01 10:03:43;;;;;;;17.45;9.02;;;21.80;99.90;;;;;;5035898;28;20474;-91
2021/09/01 10:06:16;;;;;;;14.73;8.18;;;22.00;99.90;;;;;;5036440;28;20021;-89
2021/09/01 10:08:42;;;;;;;20.30;8.52;;;22.10;99.90;;;;;;5036134;28;20029;-91
2021/09/01 10:11:10;;;;;;;14.25;8.00;;;22.30;99.90;;;;;;5036432;28;20029;-92
2021/09/01 10:13:39;;;;;;;14.80;7.95;;;22.10;99.90;;;;;;5035580;28;20577;-93
2021/09/01 10:16:20;;;;;;;12.18;7.10;;;22.30;99.90;;;;;;5034720;28;20079;-91
2021/09/01 10:18:51;;;;;;;13.55;7.28;;;22.30;99.90;;;;;;5034372;28;20026;-94
2021/09/01 10:21:18;;;;;;;17.42;7.82;;;22.40;99.90;;;;;;5033947;28;20030;-90
2021/09/01 10:23:45;;;;;;;13.57;7.20;;;22.30;99.90;;;;;;5034411;28;20104;-90
2021/09/01 10:26:30;;;;;;;13.52;7.65;;;21.90;99.90;;;;;;5035522;28;20084;-92
2021/09/01 10:29:00;;;;;;;15.20;7.65;;;22.00;99.90;;;;;;5033649;28;20029;-89
2021/09/01 10:31:34;;;;;;;13.77;6.78;;;22.10;99.90;;;;;;5033596;28;20088;-89
2021/09/01 10:34:19;;;;;;;14.75;6.80;;;22.10;99.90;;;;;;5033292;28;20038;-93
2021/09/01 10:36:49;;;;;;;13.85;7.38;;;22.30;99.90;;;;;;5033796;28;20024;-92
2021/09/01 10:39:34;;;;;;;13.77;6.90;;;22.40;99.90;;;;;;5033119;28;20072;-91
2021/09/01 10:42:37;;;;;;;21.77;7.05;;;22.50;99.90;;;;;;5033348;28;20080;-92
2021/09/01 10:45:23;;;;;;;16.33;6.35;;;22.80;99.90;;;;;;5034308;28;20035;-89
2021/09/01 10:47:52;;;;;;;17.50;7.75;;;22.90;99.90;;;;;;5044152;28;20025;-92
2021/09/01 10:50:23;;;;;;;18.38;6.85;;;23.30;99.90;;;;;;5044637;28;20037;-89
2021/09/01 10:53:11;;;;;;;11.38;5.82;;;23.30;99.90;;;;;;5041752;28;20025;-91
2021/09/01 10:55:52;;;;;;;11.68;6.20;;;23.30;99.90;;;;;;5035582;28;20033;-93
2021/09/01 10:58:33;;;;;;;17.48;6.93;;;23.60;99.90;;;;;;5033378;28;20057;-89
2021/09/01 11:01:13;;;;;;;9.82;6.07;;;23.90;99.90;;;;;;5033675;28;20503;-93
2021/09/01 11:04:05;;;;;;;15.05;6.25;;;23.60;99.90;;;;;;5033286;28;20053;-91
2021/09/01 11:06:35;;;;;;;16.80;5.82;;;23.60;99.90;;;;;;5034227;28;20399;-91
2021/09/01 11:09:05;;;;;;;17.17;6.57;;;23.60;99.90;;;;;;5033242;28;20083;-92
2021/09/01 11:11:52;;;;;;;17.27;6.80;;;23.70;99.90;;;;;;5033005;28;20032;-92
2021/09/01 11:14:31;;;;;;;11.23;5.78;;;23.60;99.90;;;;;;5035180;28;20025;-91
2021/09/01 11:16:58;;;;;;;12.45;6.05;;;23.60;99.90;;;;;;5034452;28;20033;-92
2021/09/01 11:19:24;;;;;;;12.73;5.80;;;23.60;99.90;;;;;;5033115;28;20025;-93
2021/09/01 11:21:49;;;;;;;10.15;5.20;;;23.70;99.90;;;;;;5035176;28;20050;-92
2021/09/01 11:24:18;;;;;;;11.75;6.38;;;24.20;99.90;;;;;;5036189;28;20033;-94
2021/09/01 11:26:45;;;;;;;15.52;7.85;;;24.40;99.90;;;;;;5035499;28;20029;-93
2021/09/01 11:29:11;;;;;;;20.15;6.88;;;24.50;99.90;;;;;;5027439;28;20041;-93
2021/09/01 11:31:44;;;;;;;17.48;7.30;;;24.50;99.90;;;;;;5030069;28;20673;-91
2021/09/01 11:34:14;;;;;;;9.77;6.32;;;24.20;99.90;;;;;;5029398;28;20037;-92
2021/09/01 11:36:41;;;;;;;14.18;6.60;;;23.60;99.90;;;;;;5029681;28;20029;-89
2021/09/01 11:39:07;;;;;;;20.00;7.57;;;23.60;99.90;;;;;;5030343;28;20033;-91
2021/09/01 11:41:33;;;;;;;15.27;7.65;;;23.60;99.90;;;;;;5031723;28;20026;-93
2021/09/01 11:44:01;;;;;;;17.13;7.22;;;23.60;99.90;;;;;;5035663;28;20029;-92
2021/09/01 11:46:36;;;;;;;14.50;6.80;;;24.00;99.90;;;;;;5027287;28;20040;-85
2021/09/01 11:49:11;;;;;;;19.63;7.45;;;24.00;99.90;;;;;;5027473;28;20485;-86
2021/09/01 11:51:42;;;;;;;13.65;6.72;;;24.10;99.90;;;;;;5026512;28;20099;-91
2021/09/01 11:54:09;;;;;;;14.55;6.82;;;24.10;99.90;;;;;;5028388;28;20393;-88
2021/09/01 11:56:35;;;;;;;16.92;7.05;;;24.20;99.90;;;;;;5030497;28;20682;-88
2021/09/01 11:59:04;;;;;;;13.90;6.88;;;23.80;99.90;;;;;;5028541;28;20116;-91
2021/09/01 12:01:32;;;;;;;11.63;6.28;;;23.40;99.90;;;;;;5023664;28;20032;-88
2021/09/01 12:03:58;;;;;;;19.40;6.95;;;23.30;99.90;;;;;;5011961;28;20030;-91
2021/09/01 12:06:34;;;;;;;17.10;6.82;;;23.60;99.90;;;;;;5013108;28;20113;-88
2021/09/01 12:09:00;;;;;;;12.73;6.53;;;23.40;99.90;;;;;;5013762;28;20153;-91
2021/09/01 12:11:31;;;;;;;22.00;6.00;;;23.60;99.90;;;;;;5033599;28;20458;-90
2021/09/01 12:14:05;;;;;;;12.13;5.88;;;24.00;99.90;;;;;;5031983;28;20025;-90
2021/09/01 12:16:32;;;;;;;18.00;5.80;;;24.40;99.90;;;;;;5031848;28;20060;-89
2021/09/01 12:19:07;;;;;;;10.15;6.25;;;25.10;99.90;;;;;;5032493;28;20032;-94
2021/09/01 12:21:46;;;;;;;8.45;4.60;;;25.40;99.90;;;;;;5032269;28;20026;-88
2021/09/01 12:24:14;;;;;;;12.18;5.88;;;25.50;99.90;;;;;;5030929;28;20130;-92
2021/09/01 12:27:07;;;;;;;17.38;6.20;;;26.00;99.90;;;;;;5032061;28;20033;-86
2021/09/01 12:29:43;;;;;;;22.70;5.53;;;26.00;99.90;;;;;;5031573;28;20079;-88
2021/09/01 12:32:15;;;;;;;9.38;5.85;;;26.10;99.90;;;;;;5021639;28;20026;-86
2021/09/01 12:34:43;;;;;;;11.32;5.68;;;26.40;99.90;;;;;;5031308;28;20040;-88
2021/09/01 12:37:32;;;;;;;7.20;4.70;;;26.50;99.90;;;;;;5030759;28;20041;-91